sensor_id;sensor_type;location;lat;lon;timestamp;P1;durP1;ratioP1;P2;durP2;ratioP2
32613;SDS011;19031;51.400;6.770;2023-09-19T00:00:30;17.25;;;3.45;;
32613;SDS011;19031;51.400;6.770;2023-09-19T00:02:57;20.80;;;3.53;;
32613;SDS011;19031;51.400;6.770;2023-09-19T00:05:29;16.02;;;3.88;;
32613;SDS011;19031;51.400;6.770;2023-09-19T00:07:59;17.97;;;3.70;;
32613;SDS011;19031;51.400;6.770;2023-09-19T00:10:26;15.63;;;4.20;;
32613;SDS011;19031;51.400;6.770;2023-09-19T00:12:56;17.13;;;3.97;;
32613;SDS011;19031;51.400;6.770;2023-09-19T00:15:24;14.23;;;3.50;;
32613;SDS011;19031;51.400;6.770;2023-09-19T00:17:51;11.20;;;2.78;;
32613;SDS011;19031;51.400;6.770;2023-09-19T00:20:20;12.77;;;2.83;;
32613;SDS011;19031;51.400;6.770;2023-09-19T00:22:48;16.77;;;3.75;;
32613;SDS011;19031;51.400;6.770;2023-09-19T00:25:15;10.82;;;2.70;;
32613;SDS011;19031;51.400;6.770;2023-09-19T00:27:41;10.02;;;2.83;;
32613;SDS011;19031;51.400;6.770;2023-09-19T00:30:10;18.55;;;2.80;;
32613;SDS011;19031;51.400;6.770;2023-09-19T00:32:44;13.52;;;2.72;;
32613;SDS011;19031;51.400;6.770;2023-09-19T00:35:12;11.80;;;2.70;;
32613;SDS011;19031;51.400;6.770;2023-09-19T00:37:40;14.63;;;3.83;;
32613;SDS011;19031;51.400;6.770;2023-09-19T00:40:08;13.40;;;3.67;;
32613;SDS011;19031;51.400;6.770;2023-09-19T00:42:38;14.48;;;3.40;;
32613;SDS011;19031;51.400;6.770;2023-09-19T00:45:06;14.45;;;2.83;;
32613;SDS011;19031;51.400;6.770;2023-09-19T00:47:34;13.35;;;3.08;;
32613;SDS011;19031;51.400;6.770;2023-09-19T00:50:00;14.75;;;3.40;;
32613;SDS011;19031;51.400;6.770;2023-09-19T00:52:27;17.92;;;4.00;;
32613;SDS011;19031;51.400;6.770;2023-09-19T00:54:52;13.25;;;3.47;;
32613;SDS011;19031;51.400;6.770;2023-09-19T00:57:19;12.07;;;3.47;;
32613;SDS011;19031;51.400;6.770;2023-09-19T00:59:47;17.20;;;3.80;;
32613;SDS011;19031;51.400;6.770;2023-09-19T01:02:15;12.88;;;3.63;;
32613;SDS011;19031;51.400;6.770;2023-09-19T01:04:41;16.63;;;3.80;;
32613;SDS011;19031;51.400;6.770;2023-09-19T01:07:08;21.80;;;4.25;;
32613;SDS011;19031;51.400;6.770;2023-09-19T01:09:34;18.98;;;3.80;;
32613;SDS011;19031;51.400;6.770;2023-09-19T01:12:01;14.32;;;3.97;;
32613;SDS011;19031;51.400;6.770;2023-09-19T01:17:29;16.33;;;3.42;;
32613;SDS011;19031;51.400;6.770;2023-09-19T01:30:52;17.77;;;4.43;;
32613;SDS011;19031;51.400;6.770;2023-09-19T01:33:23;14.35;;;3.78;;
32613;SDS011;19031;51.400;6.770;2023-09-19T01:35:50;19.27;;;4.00;;
32613;SDS011;19031;51.400;6.770;2023-09-19T01:38:17;19.25;;;3.75;;
32613;SDS011;19031;51.400;6.770;2023-09-19T01:40:46;15.65;;;2.85;;
32613;SDS011;19031;51.400;6.770;2023-09-19T01:43:22;15.20;;;2.90;;
32613;SDS011;19031;51.400;6.770;2023-09-19T01:46:13;17.90;;;3.47;;
32613;SDS011;19031;51.400;6.770;2023-09-19T01:51:13;16.52;;;2.92;;
32613;SDS011;19031;51.400;6.770;2023-09-19T01:57:13;14.88;;;3.08;;
32613;SDS011;19031;51.400;6.770;2023-09-19T01:59:25;20.02;;;3.25;;
32613;SDS011;19031;51.400;6.770;2023-09-19T02:01:58;9.10;;;2.40;;
32613;SDS011;19031;51.400;6.770;2023-09-19T02:04:25;13.32;;;2.70;;
32613;SDS011;19031;51.400;6.770;2023-09-19T02:06:52;16.63;;;3.60;;
32613;SDS011;19031;51.400;6.770;2023-09-19T02:09:18;15.25;;;4.07;;
32613;SDS011;19031;51.400;6.770;2023-09-19T02:11:44;15.15;;;3.38;;
32613;SDS011;19031;51.400;6.770;2023-09-19T02:14:09;20.10;;;4.15;;
32613;SDS011;19031;51.400;6.770;2023-09-19T02:16:35;18.05;;;3.95;;
32613;SDS011;19031;51.400;6.770;2023-09-19T02:19:00;16.15;;;3.38;;
32613;SDS011;19031;51.400;6.770;2023-09-19T02:21:30;15.82;;;3.60;;
32613;SDS011;19031;51.400;6.770;2023-09-19T02:23:56;15.20;;;3.85;;
32613;SDS011;19031;51.400;6.770;2023-09-19T02:26:22;23.60;;;4.15;;
32613;SDS011;19031;51.400;6.770;2023-09-19T02:28:48;12.32;;;3.00;;
32613;SDS011;19031;51.400;6.770;2023-09-19T02:31:14;13.55;;;2.95;;
32613;SDS011;19031;51.400;6.770;2023-09-19T02:33:41;15.75;;;3.20;;
32613;SDS011;19031;51.400;6.770;2023-09-19T02:36:07;18.85;;;3.63;;
32613;SDS011;19031;51.400;6.770;2023-09-19T02:38:33;15.82;;;4.20;;
32613;SDS011;19031;51.400;6.770;2023-09-19T02:40:59;18.08;;;3.45;;
32613;SDS011;19031;51.400;6.770;2023-09-19T02:43:25;13.48;;;3.38;;
32613;SDS011;19031;51.400;6.770;2023-09-19T02:45:50;14.43;;;3.42;;
32613;SDS011;19031;51.400;6.770;2023-09-19T02:48:18;22.10;;;4.78;;
32613;SDS011;19031;51.400;6.770;2023-09-19T02:50:44;18.10;;;5.32;;
32613;SDS011;19031;51.400;6.770;2023-09-19T02:53:10;25.45;;;4.95;;
32613;SDS011;19031;51.400;6.770;2023-09-19T02:55:38;16.60;;;5.32;;
32613;SDS011;19031;51.400;6.770;2023-09-19T02:58:05;19.27;;;3.70;;
32613;SDS011;19031;51.400;6.770;2023-09-19T03:00:33;15.93;;;3.65;;
32613;SDS011;19031;51.400;6.770;2023-09-19T03:03:00;21.23;;;4.32;;
32613;SDS011;19031;51.400;6.770;2023-09-19T03:05:27;15.50;;;4.13;;
32613;SDS011;19031;51.400;6.770;2023-09-19T03:07:55;19.40;;;3.58;;
32613;SDS011;19031;51.400;6.770;2023-09-19T03:10:21;16.52;;;3.25;;
32613;SDS011;19031;51.400;6.770;2023-09-19T03:12:49;12.95;;;3.08;;
32613;SDS011;19031;51.400;6.770;2023-09-19T03:15:15;10.77;;;3.55;;
32613;SDS011;19031;51.400;6.770;2023-09-19T03:17:45;12.65;;;3.28;;
32613;SDS011;19031;51.400;6.770;2023-09-19T03:20:12;15.63;;;3.90;;
32613;SDS011;19031;51.400;6.770;2023-09-19T03:22:39;15.77;;;3.92;;
32613;SDS011;19031;51.400;6.770;2023-09-19T03:25:05;15.43;;;4.35;;
32613;SDS011;19031;51.400;6.770;2023-09-19T03:27:33;16.63;;;3.40;;
32613;SDS011;19031;51.400;6.770;2023-09-19T03:30:03;14.90;;;3.78;;
32613;SDS011;19031;51.400;6.770;2023-09-19T03:32:36;15.73;;;3.95;;
32613;SDS011;19031;51.400;6.770;2023-09-19T03:35:08;16.75;;;3.30;;
32613;SDS011;19031;51.400;6.770;2023-09-19T03:37:39;17.83;;;3.67;;
32613;SDS011;19031;51.400;6.770;2023-09-19T03:40:06;20.05;;;4.18;;
32613;SDS011;19031;51.400;6.770;2023-09-19T03:42:33;13.05;;;3.53;;
32613;SDS011;19031;51.400;6.770;2023-09-19T03:45:01;14.52;;;3.63;;
32613;SDS011;19031;51.400;6.770;2023-09-19T03:47:29;17.38;;;3.90;;
32613;SDS011;19031;51.400;6.770;2023-09-19T03:49:54;17.52;;;3.92;;
32613;SDS011;19031;51.400;6.770;2023-09-19T03:52:20;13.13;;;3.95;;
32613;SDS011;19031;51.400;6.770;2023-09-19T03:54:45;13.45;;;2.78;;
32613;SDS011;19031;51.400;6.770;2023-09-19T03:57:11;10.27;;;2.22;;
32613;SDS011;19031;51.400;6.770;2023-09-19T03:59:37;21.92;;;3.00;;
32613;SDS011;19031;51.400;6.770;2023-09-19T04:02:03;11.75;;;2.53;;
32613;SDS011;19031;51.400;6.770;2023-09-19T04:04:29;29.27;;;4.88;;
32613;SDS011;19031;51.400;6.770;2023-09-19T04:06:55;14.07;;;3.60;;
32613;SDS011;19031;51.400;6.770;2023-09-19T04:09:20;18.10;;;3.63;;
32613;SDS011;19031;51.400;6.770;2023-09-19T04:11:46;8.00;;;2.40;;
32613;SDS011;19031;51.400;6.770;2023-09-19T04:14:12;18.52;;;2.90;;
32613;SDS011;19031;51.400;6.770;2023-09-19T04:16:37;12.23;;;2.47;;
32613;SDS011;19031;51.400;6.770;2023-09-19T04:19:04;12.82;;;2.20;;
32613;SDS011;19031;51.400;6.770;2023-09-19T04:21:30;7.50;;;2.03;;
32613;SDS011;19031;51.400;6.770;2023-09-19T04:23:56;17.88;;;2.28;;
32613;SDS011;19031;51.400;6.770;2023-09-19T04:26:21;15.70;;;2.63;;
32613;SDS011;19031;51.400;6.770;2023-09-19T04:28:47;10.15;;;2.17;;
32613;SDS011;19031;51.400;6.770;2023-09-19T04:31:12;13.05;;;2.30;;
32613;SDS011;19031;51.400;6.770;2023-09-19T04:33:39;13.40;;;2.67;;
32613;SDS011;19031;51.400;6.770;2023-09-19T04:36:04;8.00;;;2.00;;
32613;SDS011;19031;51.400;6.770;2023-09-19T04:38:32;8.48;;;2.05;;
32613;SDS011;19031;51.400;6.770;2023-09-19T04:40:58;7.20;;;2.33;;
32613;SDS011;19031;51.400;6.770;2023-09-19T04:43:24;14.77;;;2.40;;
32613;SDS011;19031;51.400;6.770;2023-09-19T04:45:50;14.30;;;2.03;;
32613;SDS011;19031;51.400;6.770;2023-09-19T04:48:19;6.85;;;2.58;;
32613;SDS011;19031;51.400;6.770;2023-09-19T04:50:45;10.80;;;2.10;;
32613;SDS011;19031;51.400;6.770;2023-09-19T04:53:10;10.82;;;2.00;;
32613;SDS011;19031;51.400;6.770;2023-09-19T04:55:36;11.57;;;2.70;;
32613;SDS011;19031;51.400;6.770;2023-09-19T04:58:01;13.77;;;2.22;;
32613;SDS011;19031;51.400;6.770;2023-09-19T05:00:27;6.00;;;1.98;;
32613;SDS011;19031;51.400;6.770;2023-09-19T05:02:56;8.45;;;2.30;;
32613;SDS011;19031;51.400;6.770;2023-09-19T05:05:22;11.57;;;2.50;;
32613;SDS011;19031;51.400;6.770;2023-09-19T05:07:48;13.38;;;2.05;;
32613;SDS011;19031;51.400;6.770;2023-09-19T05:10:14;15.65;;;2.53;;
32613;SDS011;19031;51.400;6.770;2023-09-19T05:12:41;11.27;;;2.15;;
32613;SDS011;19031;51.400;6.770;2023-09-19T05:15:07;9.88;;;2.45;;
32613;SDS011;19031;51.400;6.770;2023-09-19T05:17:33;19.48;;;3.70;;
32613;SDS011;19031;51.400;6.770;2023-09-19T05:19:59;20.52;;;3.58;;
32613;SDS011;19031;51.400;6.770;2023-09-19T05:22:31;19.65;;;3.17;;
32613;SDS011;19031;51.400;6.770;2023-09-19T05:24:57;17.30;;;3.25;;
32613;SDS011;19031;51.400;6.770;2023-09-19T05:27:23;13.00;;;2.90;;
32613;SDS011;19031;51.400;6.770;2023-09-19T05:29:49;20.73;;;2.90;;
32613;SDS011;19031;51.400;6.770;2023-09-19T05:32:18;17.08;;;3.00;;
32613;SDS011;19031;51.400;6.770;2023-09-19T05:34:44;17.83;;;2.88;;
32613;SDS011;19031;51.400;6.770;2023-09-19T05:37:10;18.20;;;3.42;;
32613;SDS011;19031;51.400;6.770;2023-09-19T05:39:36;17.58;;;3.42;;
32613;SDS011;19031;51.400;6.770;2023-09-19T05:42:02;17.45;;;3.05;;
32613;SDS011;19031;51.400;6.770;2023-09-19T05:44:28;22.60;;;5.13;;
32613;SDS011;19031;51.400;6.770;2023-09-19T05:46:54;21.75;;;3.75;;
32613;SDS011;19031;51.400;6.770;2023-09-19T05:49:21;15.70;;;3.58;;
32613;SDS011;19031;51.400;6.770;2023-09-19T05:51:47;17.27;;;3.70;;
32613;SDS011;19031;51.400;6.770;2023-09-19T05:54:13;13.82;;;2.65;;
32613;SDS011;19031;51.400;6.770;2023-09-19T05:56:38;15.88;;;2.95;;
32613;SDS011;19031;51.400;6.770;2023-09-19T05:59:04;18.75;;;3.85;;
32613;SDS011;19031;51.400;6.770;2023-09-19T06:01:30;11.65;;;3.35;;
32613;SDS011;19031;51.400;6.770;2023-09-19T06:03:57;17.75;;;2.78;;
32613;SDS011;19031;51.400;6.770;2023-09-19T06:06:25;11.98;;;3.50;;
32613;SDS011;19031;51.400;6.770;2023-09-19T06:08:51;15.52;;;2.72;;
32613;SDS011;19031;51.400;6.770;2023-09-19T06:11:16;12.82;;;2.95;;
32613;SDS011;19031;51.400;6.770;2023-09-19T06:13:45;18.05;;;3.75;;
32613;SDS011;19031;51.400;6.770;2023-09-19T06:16:12;11.73;;;3.72;;
32613;SDS011;19031;51.400;6.770;2023-09-19T06:18:38;23.70;;;3.53;;
32613;SDS011;19031;51.400;6.770;2023-09-19T06:21:04;19.85;;;3.90;;
32613;SDS011;19031;51.400;6.770;2023-09-19T06:23:32;10.18;;;2.90;;
32613;SDS011;19031;51.400;6.770;2023-09-19T06:26:01;15.98;;;3.38;;
32613;SDS011;19031;51.400;6.770;2023-09-19T06:28:26;22.05;;;5.15;;
32613;SDS011;19031;51.400;6.770;2023-09-19T06:30:53;15.85;;;4.35;;
32613;SDS011;19031;51.400;6.770;2023-09-19T06:33:19;21.23;;;4.45;;
32613;SDS011;19031;51.400;6.770;2023-09-19T06:35:46;15.93;;;4.18;;
32613;SDS011;19031;51.400;6.770;2023-09-19T06:38:13;13.90;;;3.45;;
32613;SDS011;19031;51.400;6.770;2023-09-19T06:40:40;19.40;;;3.85;;
32613;SDS011;19031;51.400;6.770;2023-09-19T06:43:09;12.85;;;3.03;;
32613;SDS011;19031;51.400;6.770;2023-09-19T06:45:35;13.60;;;2.75;;
32613;SDS011;19031;51.400;6.770;2023-09-19T06:48:01;13.80;;;2.72;;
32613;SDS011;19031;51.400;6.770;2023-09-19T06:50:28;12.23;;;2.70;;
32613;SDS011;19031;51.400;6.770;2023-09-19T06:52:56;8.82;;;2.72;;
32613;SDS011;19031;51.400;6.770;2023-09-19T06:55:24;18.80;;;2.50;;
32613;SDS011;19031;51.400;6.770;2023-09-19T06:57:53;14.32;;;2.80;;
32613;SDS011;19031;51.400;6.770;2023-09-19T07:00:19;10.88;;;2.10;;
32613;SDS011;19031;51.400;6.770;2023-09-19T07:05:22;12.73;;;2.03;;
32613;SDS011;19031;51.400;6.770;2023-09-19T07:07:48;14.60;;;2.15;;
32613;SDS011;19031;51.400;6.770;2023-09-19T07:10:13;19.65;;;2.60;;
32613;SDS011;19031;51.400;6.770;2023-09-19T07:12:39;12.73;;;2.03;;
32613;SDS011;19031;51.400;6.770;2023-09-19T07:15:06;9.32;;;2.22;;
32613;SDS011;19031;51.400;6.770;2023-09-19T07:17:32;9.23;;;2.47;;
32613;SDS011;19031;51.400;6.770;2023-09-19T07:19:58;12.85;;;2.80;;
32613;SDS011;19031;51.400;6.770;2023-09-19T07:22:26;15.43;;;3.17;;
32613;SDS011;19031;51.400;6.770;2023-09-19T07:24:52;15.88;;;3.00;;
32613;SDS011;19031;51.400;6.770;2023-09-19T07:27:17;13.82;;;2.50;;
32613;SDS011;19031;51.400;6.770;2023-09-19T07:29:43;12.90;;;2.47;;
32613;SDS011;19031;51.400;6.770;2023-09-19T07:32:09;10.18;;;1.92;;
32613;SDS011;19031;51.400;6.770;2023-09-19T07:34:36;12.63;;;2.35;;
32613;SDS011;19031;51.400;6.770;2023-09-19T07:37:04;11.73;;;1.88;;
32613;SDS011;19031;51.400;6.770;2023-09-19T07:39:29;16.75;;;2.30;;
32613;SDS011;19031;51.400;6.770;2023-09-19T07:41:55;17.00;;;2.30;;
32613;SDS011;19031;51.400;6.770;2023-09-19T07:44:21;11.38;;;2.70;;
32613;SDS011;19031;51.400;6.770;2023-09-19T07:46:47;12.32;;;2.53;;
32613;SDS011;19031;51.400;6.770;2023-09-19T07:49:16;17.50;;;3.20;;
32613;SDS011;19031;51.400;6.770;2023-09-19T07:51:42;12.10;;;2.13;;
32613;SDS011;19031;51.400;6.770;2023-09-19T07:54:11;11.88;;;2.40;;
32613;SDS011;19031;51.400;6.770;2023-09-19T07:56:37;14.30;;;2.35;;
32613;SDS011;19031;51.400;6.770;2023-09-19T07:59:03;14.60;;;2.35;;
32613;SDS011;19031;51.400;6.770;2023-09-19T08:01:29;12.13;;;2.33;;
32613;SDS011;19031;51.400;6.770;2023-09-19T08:03:54;16.30;;;2.17;;
32613;SDS011;19031;51.400;6.770;2023-09-19T08:06:20;9.00;;;1.90;;
32613;SDS011;19031;51.400;6.770;2023-09-19T08:08:45;10.10;;;2.20;;
32613;SDS011;19031;51.400;6.770;2023-09-19T08:11:11;16.60;;;2.83;;
32613;SDS011;19031;51.400;6.770;2023-09-19T08:13:40;22.25;;;3.17;;
32613;SDS011;19031;51.400;6.770;2023-09-19T08:16:09;15.48;;;2.90;;
32613;SDS011;19031;51.400;6.770;2023-09-19T08:18:35;13.30;;;1.92;;
32613;SDS011;19031;51.400;6.770;2023-09-19T08:21:05;10.85;;;2.30;;
32613;SDS011;19031;51.400;6.770;2023-09-19T08:23:33;15.98;;;2.15;;
32613;SDS011;19031;51.400;6.770;2023-09-19T08:25:58;10.75;;;1.88;;
32613;SDS011;19031;51.400;6.770;2023-09-19T08:28:28;9.20;;;2.13;;
32613;SDS011;19031;51.400;6.770;2023-09-19T08:30:55;14.02;;;2.17;;
32613;SDS011;19031;51.400;6.770;2023-09-19T08:33:20;7.13;;;1.85;;
32613;SDS011;19031;51.400;6.770;2023-09-19T08:35:46;8.45;;;2.53;;
32613;SDS011;19031;51.400;6.770;2023-09-19T08:38:12;11.68;;;2.45;;
32613;SDS011;19031;51.400;6.770;2023-09-19T08:40:39;14.27;;;2.45;;
32613;SDS011;19031;51.400;6.770;2023-09-19T08:43:06;7.85;;;1.80;;
32613;SDS011;19031;51.400;6.770;2023-09-19T08:45:33;9.70;;;2.60;;
32613;SDS011;19031;51.400;6.770;2023-09-19T08:50:31;10.35;;;2.28;;
32613;SDS011;19031;51.400;6.770;2023-09-19T08:53:01;9.57;;;2.22;;
32613;SDS011;19031;51.400;6.770;2023-09-19T08:55:36;9.93;;;2.33;;
32613;SDS011;19031;51.400;6.770;2023-09-19T08:58:06;11.73;;;2.55;;
32613;SDS011;19031;51.400;6.770;2023-09-19T09:00:36;13.27;;;3.08;;
32613;SDS011;19031;51.400;6.770;2023-09-19T09:03:02;11.20;;;2.78;;
32613;SDS011;19031;51.400;6.770;2023-09-19T09:05:31;16.98;;;2.28;;
32613;SDS011;19031;51.400;6.770;2023-09-19T09:07:59;10.60;;;2.13;;
32613;SDS011;19031;51.400;6.770;2023-09-19T09:10:25;12.90;;;2.35;;
32613;SDS011;19031;51.400;6.770;2023-09-19T09:12:52;7.95;;;1.70;;
32613;SDS011;19031;51.400;6.770;2023-09-19T09:15:20;14.23;;;2.50;;
32613;SDS011;19031;51.400;6.770;2023-09-19T09:17:48;12.52;;;2.47;;
32613;SDS011;19031;51.400;6.770;2023-09-19T09:20:15;13.35;;;2.83;;
32613;SDS011;19031;51.400;6.770;2023-09-19T09:22:52;14.15;;;2.42;;
32613;SDS011;19031;51.400;6.770;2023-09-19T09:25:46;11.98;;;2.03;;
32613;SDS011;19031;51.400;6.770;2023-09-19T09:28:19;8.63;;;1.77;;
32613;SDS011;19031;51.400;6.770;2023-09-19T09:30:46;13.75;;;2.42;;
32613;SDS011;19031;51.400;6.770;2023-09-19T09:33:12;8.73;;;1.80;;
32613;SDS011;19031;51.400;6.770;2023-09-19T09:35:53;7.97;;;1.88;;
32613;SDS011;19031;51.400;6.770;2023-09-19T09:38:23;8.43;;;2.00;;
32613;SDS011;19031;51.400;6.770;2023-09-19T09:40:56;9.32;;;1.83;;
32613;SDS011;19031;51.400;6.770;2023-09-19T09:43:28;12.45;;;2.33;;
32613;SDS011;19031;51.400;6.770;2023-09-19T09:46:08;12.55;;;2.20;;
32613;SDS011;19031;51.400;6.770;2023-09-19T09:48:48;14.50;;;2.78;;
32613;SDS011;19031;51.400;6.770;2023-09-19T09:51:39;13.63;;;1.73;;
32613;SDS011;19031;51.400;6.770;2023-09-19T09:54:14;12.32;;;2.45;;
32613;SDS011;19031;51.400;6.770;2023-09-19T09:59:43;12.07;;;2.40;;
32613;SDS011;19031;51.400;6.770;2023-09-19T10:02:18;14.02;;;2.33;;
32613;SDS011;19031;51.400;6.770;2023-09-19T10:04:55;11.88;;;2.40;;
32613;SDS011;19031;51.400;6.770;2023-09-19T10:07:34;10.07;;;2.15;;
32613;SDS011;19031;51.400;6.770;2023-09-19T10:10:03;11.82;;;2.63;;
32613;SDS011;19031;51.400;6.770;2023-09-19T10:12:44;12.20;;;2.33;;
32613;SDS011;19031;51.400;6.770;2023-09-19T10:15:13;10.07;;;2.00;;
32613;SDS011;19031;51.400;6.770;2023-09-19T10:17:42;7.53;;;1.65;;
32613;SDS011;19031;51.400;6.770;2023-09-19T10:20:09;12.50;;;2.22;;
32613;SDS011;19031;51.400;6.770;2023-09-19T10:22:49;10.10;;;2.47;;
32613;SDS011;19031;51.400;6.770;2023-09-19T10:25:26;7.80;;;1.83;;
32613;SDS011;19031;51.400;6.770;2023-09-19T10:28:00;6.00;;;1.70;;
32613;SDS011;19031;51.400;6.770;2023-09-19T10:30:29;7.13;;;1.92;;
32613;SDS011;19031;51.400;6.770;2023-09-19T10:33:01;13.15;;;2.20;;
32613;SDS011;19031;51.400;6.770;2023-09-19T10:35:28;6.75;;;1.90;;
32613;SDS011;19031;51.400;6.770;2023-09-19T10:37:59;11.35;;;2.25;;
32613;SDS011;19031;51.400;6.770;2023-09-19T10:40:27;9.85;;;1.95;;
32613;SDS011;19031;51.400;6.770;2023-09-19T10:43:03;7.80;;;1.88;;
32613;SDS011;19031;51.400;6.770;2023-09-19T10:45:33;5.13;;;2.00;;
32613;SDS011;19031;51.400;6.770;2023-09-19T10:48:00;5.70;;;1.70;;
32613;SDS011;19031;51.400;6.770;2023-09-19T10:50:30;10.82;;;2.20;;
32613;SDS011;19031;51.400;6.770;2023-09-19T10:53:02;9.43;;;1.92;;
32613;SDS011;19031;51.400;6.770;2023-09-19T10:55:32;9.27;;;2.30;;
32613;SDS011;19031;51.400;6.770;2023-09-19T10:58:00;8.18;;;1.77;;
32613;SDS011;19031;51.400;6.770;2023-09-19T11:00:28;7.53;;;1.73;;
32613;SDS011;19031;51.400;6.770;2023-09-19T11:05:40;10.98;;;2.40;;
32613;SDS011;19031;51.400;6.770;2023-09-19T11:08:07;8.80;;;1.80;;
32613;SDS011;19031;51.400;6.770;2023-09-19T11:10:45;8.52;;;2.20;;
32613;SDS011;19031;51.400;6.770;2023-09-19T11:13:28;6.85;;;1.83;;
32613;SDS011;19031;51.400;6.770;2023-09-19T11:29:39;7.72;;;1.92;;
32613;SDS011;19031;51.400;6.770;2023-09-19T11:32:05;11.85;;;2.10;;
32613;SDS011;19031;51.400;6.770;2023-09-19T11:39:37;8.15;;;1.70;;
32613;SDS011;19031;51.400;6.770;2023-09-19T11:50:31;5.15;;;2.13;;
32613;SDS011;19031;51.400;6.770;2023-09-19T11:52:59;6.68;;;1.95;;
32613;SDS011;19031;51.400;6.770;2023-09-19T11:55:27;8.75;;;1.88;;
32613;SDS011;19031;51.400;6.770;2023-09-19T11:57:57;8.70;;;1.52;;
32613;SDS011;19031;51.400;6.770;2023-09-19T12:00:24;6.22;;;1.77;;
32613;SDS011;19031;51.400;6.770;2023-09-19T12:02:52;8.77;;;2.05;;
32613;SDS011;19031;51.400;6.770;2023-09-19T12:05:29;4.82;;;1.63;;
32613;SDS011;19031;51.400;6.770;2023-09-19T12:07:58;7.95;;;1.58;;
32613;SDS011;19031;51.400;6.770;2023-09-19T12:10:24;6.78;;;1.75;;
32613;SDS011;19031;51.400;6.770;2023-09-19T12:12:50;7.97;;;2.00;;
32613;SDS011;19031;51.400;6.770;2023-09-19T12:15:22;3.88;;;1.52;;
32613;SDS011;19031;51.400;6.770;2023-09-19T12:17:53;5.22;;;1.48;;
32613;SDS011;19031;51.400;6.770;2023-09-19T12:20:19;4.72;;;1.67;;
32613;SDS011;19031;51.400;6.770;2023-09-19T12:22:46;10.80;;;1.67;;
32613;SDS011;19031;51.400;6.770;2023-09-19T12:25:12;5.47;;;1.30;;
32613;SDS011;19031;51.400;6.770;2023-09-19T12:27:44;4.97;;;1.70;;
32613;SDS011;19031;51.400;6.770;2023-09-19T12:30:17;7.35;;;2.00;;
32613;SDS011;19031;51.400;6.770;2023-09-19T12:32:44;7.55;;;1.67;;
32613;SDS011;19031;51.400;6.770;2023-09-19T12:35:10;6.78;;;1.70;;
32613;SDS011;19031;51.400;6.770;2023-09-19T12:38:01;6.45;;;1.45;;
32613;SDS011;19031;51.400;6.770;2023-09-19T12:40:28;6.60;;;1.92;;
32613;SDS011;19031;51.400;6.770;2023-09-19T12:42:57;9.25;;;1.88;;
32613;SDS011;19031;51.400;6.770;2023-09-19T12:45:25;8.70;;;1.77;;
32613;SDS011;19031;51.400;6.770;2023-09-19T12:53:33;5.57;;;1.50;;
32613;SDS011;19031;51.400;6.770;2023-09-19T12:56:07;6.95;;;1.65;;
32613;SDS011;19031;51.400;6.770;2023-09-19T12:58:47;4.47;;;1.30;;
32613;SDS011;19031;51.400;6.770;2023-09-19T13:01:20;6.40;;;1.40;;
32613;SDS011;19031;51.400;6.770;2023-09-19T13:06:50;6.57;;;1.48;;
32613;SDS011;19031;51.400;6.770;2023-09-19T13:09:20;8.30;;;1.38;;
32613;SDS011;19031;51.400;6.770;2023-09-19T13:11:59;5.47;;;1.33;;
32613;SDS011;19031;51.400;6.770;2023-09-19T13:14:30;6.20;;;1.40;;
32613;SDS011;19031;51.400;6.770;2023-09-19T13:17:06;7.82;;;1.50;;
32613;SDS011;19031;51.400;6.770;2023-09-19T13:19:47;7.13;;;1.30;;
32613;SDS011;19031;51.400;6.770;2023-09-19T13:27:52;8.80;;;1.48;;
32613;SDS011;19031;51.400;6.770;2023-09-19T13:30:22;5.55;;;1.20;;
32613;SDS011;19031;51.400;6.770;2023-09-19T13:35:34;6.47;;;1.13;;
32613;SDS011;19031;51.400;6.770;2023-09-19T13:38:04;5.47;;;1.25;;
32613;SDS011;19031;51.400;6.770;2023-09-19T13:40:31;3.45;;;1.20;;
32613;SDS011;19031;51.400;6.770;2023-09-19T13:43:03;9.50;;;1.33;;
32613;SDS011;19031;51.400;6.770;2023-09-19T13:45:31;5.13;;;0.95;;
32613;SDS011;19031;51.400;6.770;2023-09-19T13:48:00;7.28;;;1.10;;
32613;SDS011;19031;51.400;6.770;2023-09-19T13:50:26;4.47;;;0.98;;
32613;SDS011;19031;51.400;6.770;2023-09-19T13:52:54;4.22;;;1.30;;
32613;SDS011;19031;51.400;6.770;2023-09-19T13:55:20;6.68;;;0.85;;
32613;SDS011;19031;51.400;6.770;2023-09-19T13:57:46;6.20;;;1.10;;
32613;SDS011;19031;51.400;6.770;2023-09-19T14:00:17;4.18;;;0.70;;
32613;SDS011;19031;51.400;6.770;2023-09-19T14:02:50;7.70;;;1.05;;
32613;SDS011;19031;51.400;6.770;2023-09-19T14:05:17;9.15;;;0.90;;
32613;SDS011;19031;51.400;6.770;2023-09-19T14:07:46;7.47;;;1.20;;
32613;SDS011;19031;51.400;6.770;2023-09-19T14:10:12;7.47;;;1.02;;
32613;SDS011;19031;51.400;6.770;2023-09-19T14:12:38;2.47;;;0.90;;
32613;SDS011;19031;51.400;6.770;2023-09-19T14:15:07;7.10;;;1.15;;
32613;SDS011;19031;51.400;6.770;2023-09-19T14:17:42;5.80;;;0.90;;
32613;SDS011;19031;51.400;6.770;2023-09-19T14:22:50;7.63;;;0.98;;
32613;SDS011;19031;51.400;6.770;2023-09-19T14:25:16;3.30;;;0.80;;
32613;SDS011;19031;51.400;6.770;2023-09-19T14:27:44;6.22;;;0.90;;
32613;SDS011;19031;51.400;6.770;2023-09-19T14:30:15;5.43;;;0.77;;
32613;SDS011;19031;51.400;6.770;2023-09-19T14:32:41;4.18;;;0.75;;
32613;SDS011;19031;51.400;6.770;2023-09-19T14:35:07;4.60;;;0.80;;
32613;SDS011;19031;51.400;6.770;2023-09-19T14:37:36;5.85;;;1.30;;
32613;SDS011;19031;51.400;6.770;2023-09-19T14:40:03;11.98;;;2.03;;
32613;SDS011;19031;51.400;6.770;2023-09-19T14:42:38;8.07;;;2.13;;
32613;SDS011;19031;51.400;6.770;2023-09-19T14:45:09;8.35;;;1.05;;
32613;SDS011;19031;51.400;6.770;2023-09-19T14:47:37;2.70;;;0.93;;
32613;SDS011;19031;51.400;6.770;2023-09-19T14:50:03;5.22;;;0.70;;
32613;SDS011;19031;51.400;6.770;2023-09-19T14:52:32;6.28;;;0.90;;
32613;SDS011;19031;51.400;6.770;2023-09-19T14:55:02;5.72;;;0.70;;
32613;SDS011;19031;51.400;6.770;2023-09-19T14:57:32;8.05;;;0.85;;
32613;SDS011;19031;51.400;6.770;2023-09-19T14:59:58;5.47;;;0.77;;
32613;SDS011;19031;51.400;6.770;2023-09-19T15:02:30;3.83;;;0.93;;
32613;SDS011;19031;51.400;6.770;2023-09-19T15:05:02;7.32;;;0.68;;
32613;SDS011;19031;51.400;6.770;2023-09-19T15:07:28;3.03;;;0.57;;
32613;SDS011;19031;51.400;6.770;2023-09-19T15:09:56;5.63;;;0.75;;
32613;SDS011;19031;51.400;6.770;2023-09-19T15:12:22;4.88;;;0.80;;
32613;SDS011;19031;51.400;6.770;2023-09-19T15:14:48;5.07;;;0.70;;
32613;SDS011;19031;51.400;6.770;2023-09-19T15:17:22;3.25;;;0.98;;
32613;SDS011;19031;51.400;6.770;2023-09-19T15:19:50;3.50;;;0.80;;
32613;SDS011;19031;51.400;6.770;2023-09-19T15:22:18;6.93;;;1.08;;
32613;SDS011;19031;51.400;6.770;2023-09-19T15:24:47;5.45;;;0.80;;
32613;SDS011;19031;51.400;6.770;2023-09-19T15:27:13;4.13;;;0.93;;
32613;SDS011;19031;51.400;6.770;2023-09-19T15:29:41;3.70;;;0.90;;
32613;SDS011;19031;51.400;6.770;2023-09-19T15:32:07;4.15;;;0.75;;
32613;SDS011;19031;51.400;6.770;2023-09-19T15:34:32;3.38;;;0.65;;
32613;SDS011;19031;51.400;6.770;2023-09-19T15:36:58;3.08;;;0.75;;
32613;SDS011;19031;51.400;6.770;2023-09-19T15:39:29;5.15;;;0.80;;
32613;SDS011;19031;51.400;6.770;2023-09-19T15:42:02;2.15;;;0.50;;
32613;SDS011;19031;51.400;6.770;2023-09-19T15:44:28;2.25;;;0.60;;
32613;SDS011;19031;51.400;6.770;2023-09-19T15:46:53;3.17;;;0.68;;
32613;SDS011;19031;51.400;6.770;2023-09-19T15:49:19;3.45;;;0.70;;
32613;SDS011;19031;51.400;6.770;2023-09-19T15:51:45;5.35;;;0.70;;
32613;SDS011;19031;51.400;6.770;2023-09-19T15:54:14;3.70;;;0.70;;
32613;SDS011;19031;51.400;6.770;2023-09-19T15:56:41;3.92;;;0.50;;
32613;SDS011;19031;51.400;6.770;2023-09-19T15:59:13;3.17;;;0.60;;
32613;SDS011;19031;51.400;6.770;2023-09-19T16:01:40;2.53;;;0.68;;
32613;SDS011;19031;51.400;6.770;2023-09-19T16:04:09;3.75;;;0.55;;